Time;durP1;ratioP1;P1;durP2;ratioP2;P2;SDS_P1;SDS_P2;PMS_P1;PMS_P2;Temp;Humidity;BMP_temperature;BMP_pressure;BME280_temperature;BME280_humidity;BME280_pressure;Samples;Min_cycle;Max_cycle;Signal;HPM_P1;HPM_P2
2021/10/05 00:01:55;;;;;;;1.65;1.00;;;;;;;;;;4992461;28;20503;-77
2021/10/05 00:04:21;;;;;;;2.35;0.80;;;;;;;;;;4990496;28;20054;-77
2021/10/05 00:06:47;;;;;;;2.10;0.90;;;;;;;;;;4992324;28;20414;-77
2021/10/05 00:09:13;;;;;;;1.63;0.93;;;;;;;;;;4996491;28;20026;-77
2021/10/05 00:11:39;;;;;;;1.83;0.82;;;;;;;;;;4998797;28;20074;-77
2021/10/05 00:14:05;;;;;;;1.73;1.15;;;;;;;;;;4981663;28;20397;-77
2021/10/05 00:16:32;;;;;;;1.83;0.88;;;;;;;;;;5003808;28;20024;-77
2021/10/05 00:18:57;;;;;;;2.30;1.00;;;;;;;;;;4992474;28;20491;-77
2021/10/05 00:21:24;;;;;;;2.22;1.17;;;;;;;;;;5003277;28;20023;-77
2021/10/05 00:23:50;;;;;;;3.10;1.08;;;;;;;;;;4988587;28;20113;-77
2021/10/05 00:26:16;;;;;;;2.40;1.02;;;;;;;;;;4998108;28;20031;-77
2021/10/05 00:28:42;;;;;;;2.40;1.05;;;;;;;;;;4997516;28;20390;-77
2021/10/05 00:31:08;;;;;;;3.28;1.30;;;;;;;;;;4991435;28;20031;-76
2021/10/05 00:33:34;;;;;;;2.33;0.85;;;;;;;;;;4997075;28;20489;-77
2021/10/05 00:36:00;;;;;;;1.95;0.88;;;;;;;;;;4990555;28;20038;-77
2021/10/05 00:38:26;;;;;;;2.08;0.68;;;;;;;;;;5003622;28;20030;-77
2021/10/05 00:40:52;;;;;;;2.42;1.02;;;;;;;;;;4979371;28;20395;-77
2021/10/05 00:43:18;;;;;;;2.00;1.02;;;;;;;;;;4999562;28;20027;-77
2021/10/05 00:45:44;;;;;;;1.75;0.70;;;;;;;;;;4995621;28;20436;-77
2021/10/05 00:48:10;;;;;;;0.82;0.60;;;;;;;;;;4996463;28;20078;-77
2021/10/05 00:50:36;;;;;;;2.83;1.17;;;;;;;;;;5002625;28;20397;-77
2021/10/05 00:53:02;;;;;;;2.67;1.52;;;;;;;;;;4995730;28;20110;-77
2021/10/05 00:55:29;;;;;;;1.75;0.98;;;;;;;;;;5007385;28;20032;-77
2021/10/05 00:57:55;;;;;;;2.15;1.00;;;;;;;;;;4991854;28;20529;-77
2021/10/05 01:00:21;;;;;;;1.85;0.80;;;;;;;;;;5003763;28;20104;-77
2021/10/05 01:02:48;;;;;;;2.75;1.58;;;;;;;;;;4994886;28;20022;-77
2021/10/05 01:05:14;;;;;;;1.52;0.80;;;;;;;;;;4999565;28;20019;-77
2021/10/05 01:07:40;;;;;;;2.03;0.88;;;;;;;;;;5001930;28;20039;-76
2021/10/05 01:10:06;;;;;;;1.50;0.85;;;;;;;;;;4994232;28;20098;-77
2021/10/05 01:12:32;;;;;;;2.17;1.10;;;;;;;;;;5007119;28;20085;-77
2021/10/05 01:14:58;;;;;;;2.78;1.08;;;;;;;;;;4995545;28;20034;-77
2021/10/05 01:17:24;;;;;;;2.85;1.35;;;;;;;;;;5005926;28;20055;-77
2021/10/05 01:19:50;;;;;;;1.40;0.68;;;;;;;;;;4984849;28;20030;-77
2021/10/05 01:22:16;;;;;;;1.13;0.65;;;;;;;;;;5001582;28;20034;-77
2021/10/05 01:24:42;;;;;;;1.67;0.50;;;;;;;;;;5000441;28;20029;-77
2021/10/05 01:27:11;;;;;;;1.60;0.88;;;;;;;;;;4996708;28;20069;-77
2021/10/05 01:29:37;;;;;;;1.75;0.80;;;;;;;;;;4990981;28;20477;-77
2021/10/05 01:32:04;;;;;;;1.63;1.00;;;;;;;;;;4989897;28;20043;-77
2021/10/05 01:34:30;;;;;;;1.15;0.50;;;;;;;;;;5006733;28;20035;-77
2021/10/05 01:37:00;;;;;;;2.15;0.75;;;;;;;;;;4994410;28;20073;-77
2021/10/05 01:39:31;;;;;;;1.88;1.25;;;;;;;;;;5006387;28;20038;-76
2021/10/05 01:42:01;;;;;;;2.20;0.98;;;;;;;;;;4995391;28;20030;-77
2021/10/05 01:44:27;;;;;;;1.25;0.70;;;;;;;;;;4997713;28;20027;-77
2021/10/05 01:46:53;;;;;;;1.83;1.25;;;;;;;;;;4995180;28;20029;-77
2021/10/05 01:49:23;;;;;;;2.85;1.45;;;;;;;;;;5002323;28;20175;-77
2021/10/05 01:51:50;;;;;;;1.80;0.85;;;;;;;;;;4995233;28;20026;-77
2021/10/05 01:54:16;;;;;;;2.90;1.95;;;;;;;;;;4992057;28;20491;-77
2021/10/05 01:56:42;;;;;;;1.48;0.77;;;;;;;;;;5000657;28;20066;-77
2021/10/05 01:59:09;;;;;;;2.03;0.98;;;;;;;;;;4994060;28;20030;-77
2021/10/05 02:01:35;;;;;;;2.33;0.98;;;;;;;;;;4999592;28;20017;-77
2021/10/05 02:04:01;;;;;;;1.92;1.27;;;;;;;;;;4993660;28;20041;-77
2021/10/05 02:06:27;;;;;;;1.40;0.60;;;;;;;;;;5006284;28;20363;-77
2021/10/05 02:08:53;;;;;;;2.22;1.00;;;;;;;;;;4992917;28;20100;-77
2021/10/05 02:11:19;;;;;;;2.38;0.75;;;;;;;;;;4995164;28;20487;-77
2021/10/05 02:13:45;;;;;;;2.55;1.13;;;;;;;;;;4994327;28;20038;-77
2021/10/05 02:16:11;;;;;;;2.13;1.05;;;;;;;;;;4996976;28;20153;-77
2021/10/05 02:18:37;;;;;;;1.85;0.70;;;;;;;;;;5003799;28;20404;-77
2021/10/05 02:21:03;;;;;;;1.98;1.00;;;;;;;;;;4991420;28;20027;-77
2021/10/05 02:26:15;;;;;;;2.20;1.15;;;;;;;;;;4997433;28;20033;-77
2021/10/05 02:28:41;;;;;;;2.72;1.48;;;;;;;;;;5000587;28;20025;-77
2021/10/05 02:31:07;;;;;;;2.63;1.25;;;;;;;;;;4991705;28;20384;-77
2021/10/05 02:33:33;;;;;;;0.90;0.60;;;;;;;;;;4994723;28;20116;-77
2021/10/05 02:35:59;;;;;;;2.35;1.13;;;;;;;;;;4995109;28;20029;-77
2021/10/05 02:38:25;;;;;;;1.25;0.80;;;;;;;;;;5005187;28;20019;-77
2021/10/05 02:40:51;;;;;;;2.72;1.13;;;;;;;;;;4988639;28;20423;-77
2021/10/05 02:43:17;;;;;;;1.63;0.75;;;;;;;;;;5000690;28;20072;-77
2021/10/05 02:45:43;;;;;;;1.58;0.68;;;;;;;;;;4999073;28;20063;-77
2021/10/05 02:48:08;;;;;;;2.05;1.02;;;;;;;;;;4994304;28;20030;-77
2021/10/05 02:50:34;;;;;;;1.83;0.88;;;;;;;;;;4996475;28;20465;-77
2021/10/05 02:53:00;;;;;;;3.03;1.67;;;;;;;;;;4993678;28;20027;-77
2021/10/05 02:55:26;;;;;;;1.80;1.13;;;;;;;;;;5006624;28;20034;-77
2021/10/05 02:57:52;;;;;;;2.03;0.95;;;;;;;;;;4981431;28;20054;-77
2021/10/05 03:00:18;;;;;;;1.95;0.70;;;;;;;;;;5001371;28;20066;-77
2021/10/05 03:02:44;;;;;;;1.67;0.88;;;;;;;;;;4998614;28;20027;-77
2021/10/05 03:05:10;;;;;;;1.35;0.80;;;;;;;;;;4993664;28;20470;-77
2021/10/05 03:07:37;;;;;;;1.58;0.70;;;;;;;;;;5003079;28;20024;-77
2021/10/05 03:10:04;;;;;;;1.80;0.80;;;;;;;;;;4994037;28;20034;-77
2021/10/05 03:12:30;;;;;;;2.45;1.10;;;;;;;;;;5006827;28;20109;-77
2021/10/05 03:14:56;;;;;;;0.80;0.47;;;;;;;;;;4992155;28;20072;-77
2021/10/05 03:17:21;;;;;;;2.17;0.75;;;;;;;;;;5004027;28;20041;-77
2021/10/05 03:19:47;;;;;;;0.90;0.43;;;;;;;;;;4994951;28;20033;-77
2021/10/05 03:22:13;;;;;;;1.83;1.15;;;;;;;;;;4997719;28;20038;-77
2021/10/05 03:24:40;;;;;;;2.10;1.05;;;;;;;;;;4999573;28;20025;-77
2021/10/05 03:27:06;;;;;;;1.33;0.88;;;;;;;;;;4994015;28;20051;-77
2021/10/05 03:29:32;;;;;;;1.52;0.73;;;;;;;;;;5005969;28;20028;-77
2021/10/05 03:31:58;;;;;;;1.27;0.60;;;;;;;;;;4986195;28;20023;-76
2021/10/05 03:34:24;;;;;;;2.25;0.73;;;;;;;;;;5005606;28;20031;-77
2021/10/05 03:36:50;;;;;;;1.88;0.75;;;;;;;;;;4993954;28;20517;-77
2021/10/05 03:39:16;;;;;;;2.63;0.88;;;;;;;;;;4995484;28;20023;-77
2021/10/05 03:41:43;;;;;;;0.93;0.50;;;;;;;;;;4992176;28;20017;-77
2021/10/05 03:44:09;;;;;;;1.77;0.77;;;;;;;;;;4992695;28;20519;-77
2021/10/05 03:46:35;;;;;;;1.90;0.68;;;;;;;;;;5004940;28;20099;-77
2021/10/05 03:49:01;;;;;;;1.35;0.85;;;;;;;;;;4990595;28;20036;-77
2021/10/05 03:51:27;;;;;;;1.35;0.50;;;;;;;;;;5006200;28;20031;-77
2021/10/05 03:53:53;;;;;;;2.03;1.02;;;;;;;;;;4993223;28;20023;-77
2021/10/05 03:56:19;;;;;;;1.08;0.55;;;;;;;;;;5002776;28;20038;-77
2021/10/05 03:58:45;;;;;;;1.80;0.68;;;;;;;;;;4992051;28;20020;-77
2021/10/05 04:01:11;;;;;;;0.68;0.38;;;;;;;;;;4995766;28;20157;-77
2021/10/05 04:03:38;;;;;;;0.90;0.60;;;;;;;;;;5003509;28;20430;-77
2021/10/05 04:06:05;;;;;;;1.88;0.80;;;;;;;;;;4989904;28;20035;-77
2021/10/05 04:08:31;;;;;;;1.73;0.60;;;;;;;;;;5004139;28;20020;-77
2021/10/05 04:10:57;;;;;;;1.50;0.65;;;;;;;;;;4992617;28;20046;-77
2021/10/05 04:13:23;;;;;;;1.85;0.75;;;;;;;;;;5019319;28;20027;-77
2021/10/05 04:15:49;;;;;;;1.00;0.52;;;;;;;;;;4993961;28;20037;-77
2021/10/05 04:18:15;;;;;;;1.05;0.50;;;;;;;;;;4996404;28;20034;-77
2021/10/05 04:20:41;;;;;;;1.75;0.70;;;;;;;;;;4999392;28;20025;-77
2021/10/05 04:23:07;;;;;;;1.70;0.43;;;;;;;;;;4995808;28;20023;-77
2021/10/05 04:25:33;;;;;;;1.83;0.93;;;;;;;;;;4996571;28;20027;-77
2021/10/05 04:27:59;;;;;;;1.10;0.57;;;;;;;;;;4981304;28;20151;-77
2021/10/05 04:30:25;;;;;;;1.23;0.50;;;;;;;;;;4984076;28;20557;-77
2021/10/05 04:32:52;;;;;;;2.03;0.70;;;;;;;;;;5004008;22;20047;-80
2021/10/05 04:35:17;;;;;;;0.75;0.40;;;;;;;;;;5050875;28;20029;-81
2021/10/05 04:37:43;;;;;;;1.00;0.50;;;;;;;;;;5039851;28;20097;-80
2021/10/05 04:40:10;;;;;;;2.33;1.30;;;;;;;;;;5058032;28;20387;-81
2021/10/05 04:42:36;;;;;;;1.63;0.70;;;;;;;;;;5038074;28;20017;-81
2021/10/05 04:45:02;;;;;;;0.65;0.25;;;;;;;;;;5039036;28;20029;-81
2021/10/05 04:47:28;;;;;;;1.70;0.73;;;;;;;;;;5033167;28;20029;-79
2021/10/05 04:49:54;;;;;;;1.67;0.77;;;;;;;;;;5056093;28;20423;-79
2021/10/05 04:52:20;;;;;;;2.03;0.73;;;;;;;;;;5056706;28;20109;-80
2021/10/05 04:54:46;;;;;;;0.80;0.20;;;;;;;;;;5036916;28;20036;-79
2021/10/05 04:57:12;;;;;;;0.70;0.40;;;;;;;;;;5037199;28;20040;-81
2021/10/05 04:59:38;;;;;;;1.40;0.73;;;;;;;;;;5055623;28;20028;-81
2021/10/05 05:02:04;;;;;;;1.48;0.98;;;;;;;;;;5038150;28;20029;-82
2021/10/05 05:04:30;;;;;;;1.75;0.63;;;;;;;;;;5054478;28;20032;-81
2021/10/05 05:06:56;;;;;;;0.88;0.30;;;;;;;;;;5057064;28;20178;-82
2021/10/05 05:09:22;;;;;;;0.77;0.47;;;;;;;;;;5056055;28;20516;-82
2021/10/05 05:11:48;;;;;;;0.95;0.52;;;;;;;;;;5055734;28;20033;-82
2021/10/05 05:14:17;;;;;;;1.55;0.73;;;;;;;;;;5057194;28;20426;-82
2021/10/05 05:16:43;;;;;;;1.00;0.50;;;;;;;;;;5036749;28;20132;-80
2021/10/05 05:19:09;;;;;;;1.88;0.70;;;;;;;;;;5037862;28;20689;-80
2021/10/05 05:21:35;;;;;;;2.50;0.50;;;;;;;;;;5056465;28;20025;-81
2021/10/05 05:24:02;;;;;;;1.20;0.47;;;;;;;;;;5059600;28;20082;-83
2021/10/05 05:26:28;;;;;;;1.40;0.47;;;;;;;;;;5060070;28;20051;-81
2021/10/05 05:28:55;;;;;;;1.00;0.43;;;;;;;;;;5038661;28;20335;-82
2021/10/05 05:31:21;;;;;;;1.45;0.43;;;;;;;;;;5060205;28;20012;-83
2021/10/05 05:33:47;;;;;;;1.20;0.80;;;;;;;;;;5066037;28;20135;-83
2021/10/05 05:36:13;;;;;;;1.33;0.65;;;;;;;;;;5056474;28;20090;-83
2021/10/05 05:38:40;;;;;;;0.88;0.30;;;;;;;;;;5064175;28;20555;-83
2021/10/05 05:41:06;;;;;;;1.23;0.77;;;;;;;;;;5057954;28;20029;-82
2021/10/05 05:43:32;;;;;;;1.27;0.73;;;;;;;;;;5057398;28;20036;-82
2021/10/05 05:45:58;;;;;;;1.23;0.60;;;;;;;;;;5056927;28;20116;-80
2021/10/05 05:48:24;;;;;;;1.40;0.65;;;;;;;;;;5034082;28;20032;-79
2021/10/05 05:50:50;;;;;;;1.60;0.73;;;;;;;;;;5032503;28;20021;-81
2021/10/05 05:53:18;;;;;;;1.80;0.88;;;;;;;;;;5053848;28;20036;-81
2021/10/05 05:55:44;;;;;;;1.35;0.70;;;;;;;;;;5050521;28;20045;-81
2021/10/05 05:58:15;;;;;;;1.35;0.70;;;;;;;;;;5037978;28;20061;-81
2021/10/05 06:00:41;;;;;;;0.85;0.40;;;;;;;;;;5055323;28;20107;-81
2021/10/05 06:03:07;;;;;;;0.85;0.50;;;;;;;;;;5057815;28;20025;-81
2021/10/05 06:05:33;;;;;;;1.05;0.77;;;;;;;;;;5057979;28;20025;-81
2021/10/05 06:07:59;;;;;;;0.93;0.52;;;;;;;;;;5036555;28;20045;-81
2021/10/05 06:10:26;;;;;;;1.23;0.50;;;;;;;;;;5036166;28;20040;-81
2021/10/05 06:12:53;;;;;;;1.10;0.52;;;;;;;;;;5045754;28;20029;-81
2021/10/05 06:15:20;;;;;;;0.85;0.47;;;;;;;;;;5055273;28;20042;-81
2021/10/05 06:17:46;;;;;;;1.30;0.80;;;;;;;;;;5051911;28;20035;-80
2021/10/05 06:20:13;;;;;;;0.82;0.45;;;;;;;;;;5055862;28;20051;-81
2021/10/05 06:22:39;;;;;;;1.70;0.52;;;;;;;;;;5037287;28;20119;-80
2021/10/05 06:25:07;;;;;;;1.33;0.45;;;;;;;;;;5056419;28;20504;-81
2021/10/05 06:27:33;;;;;;;1.35;0.25;;;;;;;;;;5056607;28;20025;-81
2021/10/05 06:29:58;;;;;;;0.85;0.68;;;;;;;;;;5037093;28;20653;-80
2021/10/05 06:32:25;;;;;;;1.63;0.80;;;;;;;;;;5040823;28;20029;-81
2021/10/05 06:34:51;;;;;;;1.05;0.47;;;;;;;;;;5054872;28;20041;-79
2021/10/05 06:37:17;;;;;;;0.43;0.20;;;;;;;;;;5046801;28;20082;-81
2021/10/05 06:39:43;;;;;;;2.08;0.98;;;;;;;;;;5048963;28;20071;-79
2021/10/05 06:42:10;;;;;;;1.55;0.70;;;;;;;;;;5053857;28;20033;-80
2021/10/05 06:44:36;;;;;;;0.95;0.60;;;;;;;;;;5052642;28;20055;-81
2021/10/05 06:47:02;;;;;;;1.52;0.90;;;;;;;;;;5029523;28;20037;-80
2021/10/05 06:49:28;;;;;;;1.50;0.63;;;;;;;;;;5035823;28;20033;-83
2021/10/05 06:51:54;;;;;;;1.98;1.17;;;;;;;;;;5035734;28;20029;-83
2021/10/05 06:54:20;;;;;;;1.27;0.50;;;;;;;;;;5036649;28;20029;-81
2021/10/05 06:56:46;;;;;;;0.98;0.47;;;;;;;;;;5049828;28;20094;-81
2021/10/05 06:59:12;;;;;;;1.95;0.90;;;;;;;;;;5053971;28;20224;-83
2021/10/05 07:01:38;;;;;;;1.50;1.00;;;;;;;;;;5051446;28;20040;-81
2021/10/05 07:04:04;;;;;;;2.00;0.85;;;;;;;;;;5053182;28;20033;-84
2021/10/05 07:06:30;;;;;;;1.23;0.60;;;;;;;;;;5056720;28;20107;-83
2021/10/05 07:08:57;;;;;;;1.50;0.95;;;;;;;;;;5056624;28;20052;-81
2021/10/05 07:11:23;;;;;;;1.83;0.47;;;;;;;;;;5052477;28;20033;-82
2021/10/05 07:13:49;;;;;;;2.03;0.82;;;;;;;;;;5032713;28;20037;-82
2021/10/05 07:16:15;;;;;;;3.00;0.90;;;;;;;;;;5046744;28;20046;-81
2021/10/05 07:18:41;;;;;;;2.20;1.10;;;;;;;;;;5021462;28;20048;-82
2021/10/05 07:21:07;;;;;;;2.20;1.00;;;;;;;;;;5054214;28;20114;-80
2021/10/05 07:23:34;;;;;;;1.35;0.65;;;;;;;;;;5053261;28;20033;-82
2021/10/05 07:26:00;;;;;;;1.35;0.47;;;;;;;;;;5037669;28;20029;-82
2021/10/05 07:28:27;;;;;;;0.98;0.57;;;;;;;;;;5055409;28;20488;-82
2021/10/05 07:30:53;;;;;;;1.58;0.68;;;;;;;;;;5038475;28;20032;-82
2021/10/05 07:33:23;;;;;;;1.55;0.75;;;;;;;;;;5075095;28;20070;-82
2021/10/05 07:35:49;;;;;;;2.17;0.90;;;;;;;;;;5049903;28;20040;-81
2021/10/05 07:38:15;;;;;;;1.48;0.60;;;;;;;;;;5055446;28;20036;-82
2021/10/05 07:40:41;;;;;;;0.50;0.40;;;;;;;;;;5037109;28;20021;-81
2021/10/05 07:43:07;;;;;;;2.53;0.85;;;;;;;;;;5055340;28;20044;-81
2021/10/05 07:45:34;;;;;;;1.48;0.50;;;;;;;;;;5055434;28;20036;-82
2021/10/05 07:48:00;;;;;;;1.45;0.73;;;;;;;;;;5048725;28;20040;-83
2021/10/05 07:50:27;;;;;;;1.00;0.50;;;;;;;;;;5039327;28;20080;-82
2021/10/05 07:52:54;;;;;;;1.08;0.75;;;;;;;;;;5056236;28;20107;-83
2021/10/05 07:55:20;;;;;;;2.20;1.02;;;;;;;;;;5037467;28;20052;-83
2021/10/05 07:57:46;;;;;;;0.80;0.45;;;;;;;;;;5052280;28;20047;-82
2021/10/05 08:00:13;;;;;;;1.08;0.43;;;;;;;;;;5032539;28;20388;-82
2021/10/05 08:02:39;;;;;;;0.70;0.30;;;;;;;;;;5014283;28;20025;-82
2021/10/05 08:05:06;;;;;;;0.55;0.20;;;;;;;;;;5039227;28;20074;-82
2021/10/05 08:07:32;;;;;;;1.17;0.57;;;;;;;;;;5051253;28;20032;-82
2021/10/05 08:09:58;;;;;;;1.95;1.20;;;;;;;;;;5055367;28;20029;-83
2021/10/05 08:12:25;;;;;;;0.70;0.47;;;;;;;;;;5052720;28;20037;-81
2021/10/05 08:14:51;;;;;;;0.88;0.40;;;;;;;;;;5043401;28;20078;-82
2021/10/05 08:17:18;;;;;;;0.80;0.30;;;;;;;;;;5052720;28;20033;-83
2021/10/05 08:19:44;;;;;;;1.27;0.30;;;;;;;;;;5031787;28;20081;-81
2021/10/05 08:22:11;;;;;;;1.80;0.70;;;;;;;;;;5050541;28;20036;-83
2021/10/05 08:24:37;;;;;;;0.73;0.35;;;;;;;;;;5040262;28;20025;-83
2021/10/05 08:27:06;;;;;;;1.17;0.80;;;;;;;;;;5038905;28;20056;-83
2021/10/05 08:29:34;;;;;;;1.17;0.60;;;;;;;;;;5005457;28;20053;-83
2021/10/05 08:32:00;;;;;;;1.63;0.90;;;;;;;;;;5047372;28;20029;-84
2021/10/05 08:34:26;;;;;;;0.93;0.50;;;;;;;;;;5056496;28;20033;-84
2021/10/05 08:36:53;;;;;;;0.55;0.40;;;;;;;;;;5035063;28;20393;-84
2021/10/05 08:39:19;;;;;;;1.17;0.60;;;;;;;;;;5038519;28;20138;-84
2021/10/05 08:41:47;;;;;;;0.95;0.50;;;;;;;;;;5055879;28;20044;-83
2021/10/05 08:44:13;;;;;;;1.17;0.57;;;;;;;;;;5039807;28;20025;-83
2021/10/05 08:46:40;;;;;;;0.38;0.20;;;;;;;;;;5039949;28;20040;-83
2021/10/05 08:49:08;;;;;;;0.55;0.30;;;;;;;;;;5042862;28;20458;-84
2021/10/05 08:51:34;;;;;;;1.58;0.40;;;;;;;;;;5056542;28;20039;-83
2021/10/05 08:54:00;;;;;;;1.13;0.52;;;;;;;;;;5053647;28;20025;-82
2021/10/05 08:56:26;;;;;;;0.95;0.40;;;;;;;;;;5051467;28;20524;-81
2021/10/05 08:58:52;;;;;;;0.95;0.30;;;;;;;;;;5050275;28;20560;-82
2021/10/05 09:01:19;;;;;;;1.25;0.63;;;;;;;;;;5050539;28;20029;-83
2021/10/05 09:03:53;;;;;;;0.45;0.17;;;;;;;;;;5047230;28;20033;-83
2021/10/05 09:06:20;;;;;;;1.08;0.40;;;;;;;;;;5031661;28;20037;-83
2021/10/05 09:08:46;;;;;;;0.65;0.10;;;;;;;;;;5036205;28;20154;-83
2021/10/05 09:11:13;;;;;;;0.77;0.25;;;;;;;;;;5042414;28;20401;-84
2021/10/05 09:13:40;;;;;;;0.85;0.22;;;;;;;;;;5053302;28;20135;-84
2021/10/05 09:16:16;;;;;;;1.90;0.28;;;;;;;;;;5056535;28;20048;-83
2021/10/05 09:18:57;;;;;;;0.73;0.30;;;;;;;;;;5050852;28;20032;-83
2021/10/05 09:21:24;;;;;;;0.47;0.15;;;;;;;;;;5036281;28;20478;-84
2021/10/05 09:24:10;;;;;;;0.32;0.10;;;;;;;;;;5039033;28;20064;-84
2021/10/05 09:26:36;;;;;;;0.43;0.25;;;;;;;;;;5038629;28;20059;-84
2021/10/05 09:29:14;;;;;;;0.77;0.50;;;;;;;;;;5039273;28;20063;-83
2021/10/05 09:31:50;;;;;;;0.30;0.20;;;;;;;;;;5047164;28;20487;-84
2021/10/05 09:34:17;;;;;;;0.60;0.40;;;;;;;;;;5048315;28;20120;-84
2021/10/05 09:36:43;;;;;;;1.00;0.13;;;;;;;;;;5057430;28;20029;-84
2021/10/05 09:39:09;;;;;;;1.17;0.30;;;;;;;;;;5039640;28;20503;-84
2021/10/05 09:41:35;;;;;;;0.60;0.30;;;;;;;;;;5055103;28;20106;-84
2021/10/05 09:44:03;;;;;;;1.70;0.65;;;;;;;;;;5056980;28;20025;-83
2021/10/05 09:46:30;;;;;;;0.40;0.20;;;;;;;;;;5038450;28;20039;-84
2021/10/05 09:49:06;;;;;;;1.33;0.43;;;;;;;;;;5056747;28;20075;-84
2021/10/05 09:51:33;;;;;;;0.60;0.28;;;;;;;;;;5055855;28;20023;-84
2021/10/05 09:53:59;;;;;;;2.30;0.38;;;;;;;;;;5037733;28;20033;-83
2021/10/05 09:56:27;;;;;;;0.43;0.25;;;;;;;;;;5055538;28;20048;-84
2021/10/05 09:58:54;;;;;;;1.33;0.30;;;;;;;;;;5056348;28;20082;-83
2021/10/05 10:01:21;;;;;;;1.35;0.20;;;;;;;;;;5055945;28;20021;-82
2021/10/05 10:03:48;;;;;;;1.10;0.68;;;;;;;;;;5036641;28;20030;-83
2021/10/05 10:06:15;;;;;;;0.43;0.32;;;;;;;;;;5017501;28;20068;-84
2021/10/05 10:08:49;;;;;;;1.13;0.80;;;;;;;;;;5018295;28;20037;-84
2021/10/05 10:11:15;;;;;;;0.95;0.30;;;;;;;;;;5037519;28;20133;-84
2021/10/05 10:13:48;;;;;;;0.80;0.30;;;;;;;;;;5055036;28;20025;-84
2021/10/05 10:16:14;;;;;;;0.95;0.20;;;;;;;;;;5019036;28;20040;-84
2021/10/05 10:19:10;;;;;;;0.65;0.45;;;;;;;;;;5055429;28;20037;-84
2021/10/05 10:21:37;;;;;;;0.20;0.10;;;;;;;;;;5022308;28;20041;-83
2021/10/05 10:24:09;;;;;;;0.25;0.10;;;;;;;;;;5037512;28;20028;-84
2021/10/05 10:26:36;;;;;;;;;;;;;;;;;;5055240;28;20040;-84
2021/10/05 10:29:04;;;;;;;0.70;0.30;;;;;;;;;;5047959;28;20365;-83
2021/10/05 10:31:34;;;;;;;0.47;0.15;;;;;;;;;;5054648;28;20554;-83
2021/10/05 10:34:00;;;;;;;0.68;0.30;;;;;;;;;;5039313;23;20057;-84
2021/10/05 10:36:31;;;;;;;0.40;0.20;;;;;;;;;;4990472;28;20122;-85
2021/10/05 10:39:08;;;;;;;1.05;0.52;;;;;;;;;;5004504;28;20034;-85
2021/10/05 10:41:34;;;;;;;0.80;0.28;;;;;;;;;;4986023;28;20025;-84
2021/10/05 10:44:03;;;;;;;0.20;0.10;;;;;;;;;;5008524;28;20085;-84
2021/10/05 10:46:30;;;;;;;0.80;0.20;;;;;;;;;;4993832;28;20034;-84
2021/10/05 10:48:57;;;;;;;0.57;0.10;;;;;;;;;;5009338;28;20150;-83
2021/10/05 10:51:28;;;;;;;0.77;0.20;;;;;;;;;;4994323;28;20114;-84
2021/10/05 10:53:59;;;;;;;0.30;0.22;;;;;;;;;;4993505;28;20033;-83
2021/10/05 10:56:29;;;;;;;0.00;0.00;;;;;;;;;;4992456;28;20026;-84
2021/10/05 10:59:02;;;;;;;0.10;0.10;;;;;;;;;;5010560;28;20022;-84
2021/10/05 11:01:43;;;;;;;0.20;0.10;;;;;;;;;;5004840;28;20030;-84
2021/10/05 11:04:09;;;;;;;0.55;0.20;;;;;;;;;;4997166;28;20022;-85
2021/10/05 11:06:35;;;;;;;0.00;0.00;;;;;;;;;;4997327;28;20030;-84
2021/10/05 11:09:02;;;;;;;0.10;0.10;;;;;;;;;;4995700;28;20052;-84
2021/10/05 11:11:32;;;;;;;0.52;0.00;;;;;;;;;;4994168;28;20034;-84
2021/10/05 11:14:01;;;;;;;0.08;0.00;;;;;;;;;;5015110;28;20033;-83
2021/10/05 11:16:28;;;;;;;0.00;0.00;;;;;;;;;;5014978;28;20029;-83
2021/10/05 11:19:09;;;;;;;0.30;0.13;;;;;;;;;;4997463;28;20026;-83
2021/10/05 11:21:36;;;;;;;0.38;0.30;;;;;;;;;;4982243;28;20049;-83
2021/10/05 11:24:02;;;;;;;0.03;0.03;;;;;;;;;;4999038;28;20026;-84
2021/10/05 11:26:32;;;;;;;0.10;0.10;;;;;;;;;;5014554;28;20116;-83
2021/10/05 11:29:01;;;;;;;0.30;0.10;;;;;;;;;;4989373;28;20030;-84
2021/10/05 11:31:28;;;;;;;0.68;0.20;;;;;;;;;;5013223;28;20135;-83
2021/10/05 11:34:02;;;;;;;0.10;0.10;;;;;;;;;;5013689;28;20120;-84
2021/10/05 11:36:28;;;;;;;0.10;0.00;;;;;;;;;;5013110;28;20029;-83
2021/10/05 11:38:54;;;;;;;0.08;0.00;;;;;;;;;;5000689;28;20484;-84
2021/10/05 11:41:21;;;;;;;0.03;0.00;;;;;;;;;;5001493;28;20030;-84
2021/10/05 11:43:51;;;;;;;0.00;0.00;;;;;;;;;;4995386;28;20026;-83
2021/10/05 11:46:19;;;;;;;0.28;0.10;;;;;;;;;;4989660;28;20070;-80
2021/10/05 11:48:47;;;;;;;0.20;0.10;;;;;;;;;;5002924;28;20030;-81
2021/10/05 11:51:15;;;;;;;0.30;0.10;;;;;;;;;;5014345;28;20434;-82
2021/10/05 11:53:44;;;;;;;0.10;0.10;;;;;;;;;;5015769;28;20045;-81
2021/10/05 11:56:11;;;;;;;0.10;0.10;;;;;;;;;;4990256;28;20039;-82
2021/10/05 11:58:47;;;;;;;0.32;0.00;;;;;;;;;;5015018;28;20029;-81
2021/10/05 12:01:24;;;;;;;0.10;0.00;;;;;;;;;;4998714;28;20477;-82
2021/10/05 12:03:54;;;;;;;0.00;0.00;;;;;;;;;;4993644;28;20021;-82
2021/10/05 12:06:37;;;;;;;0.05;0.05;;;;;;;;;;5010099;28;20068;-84
2021/10/05 12:09:03;;;;;;;0.03;0.00;;;;;;;;;;5008876;28;20058;-83
2021/10/05 12:11:37;;;;;;;0.20;0.10;;;;;;;;;;5006851;28;20026;-82
2021/10/05 12:14:04;;;;;;;0.30;0.10;;;;;;;;;;4990190;28;20075;-82
2021/10/05 12:16:30;;;;;;;0.15;0.10;;;;;;;;;;4984401;28;20053;-82
2021/10/05 12:18:56;;;;;;;0.20;0.10;;;;;;;;;;5010330;28;20030;-82
2021/10/05 12:21:22;;;;;;;0.30;0.10;;;;;;;;;;5007770;28;20097;-83
2021/10/05 12:23:54;;;;;;;0.25;0.10;;;;;;;;;;4993237;28;20064;-83
2021/10/05 12:26:20;;;;;;;0.20;0.00;;;;;;;;;;4992624;28;20052;-85
2021/10/05 12:28:56;;;;;;;0.10;0.03;;;;;;;;;;4978771;28;20333;-83
2021/10/05 12:31:24;;;;;;;0.20;0.13;;;;;;;;;;4986815;28;20394;-85
2021/10/05 12:33:58;;;;;;;0.00;0.00;;;;;;;;;;5010147;28;20064;-83
2021/10/05 12:36:24;;;;;;;0.00;0.00;;;;;;;;;;5008833;28;20371;-84
2021/10/05 12:38:50;;;;;;;0.00;0.00;;;;;;;;;;4979078;28;20022;-83
2021/10/05 12:41:16;;;;;;;0.00;0.00;;;;;;;;;;5004260;28;20068;-83
2021/10/05 12:43:44;;;;;;;0.00;0.00;;;;;;;;;;4999447;28;20033;-84
2021/10/05 12:46:14;;;;;;;0.10;0.03;;;;;;;;;;4982542;28;20675;-83
2021/10/05 12:48:40;;;;;;;0.00;0.00;;;;;;;;;;4995706;28;20099;-83
2021/10/05 12:51:12;;;;;;;0.22;0.10;;;;;;;;;;5011308;28;20113;-84
2021/10/05 12:53:38;;;;;;;;;;;;;;;;;;5009375;28;20022;-83
2021/10/05 12:56:04;;;;;;;;;;;;;;;;;;4989746;28;20282;-83
2021/10/05 12:58:30;;;;;;;;;;;;;;;;;;4995504;28;19967;-82
2021/10/05 13:00:56;;;;;;;;;;;;;;;;;;5013350;28;19998;-83
2021/10/05 13:03:21;;;;;;;;;;;;;;;;;;4991999;28;19925;-83
2021/10/05 13:05:47;;;;;;;;;;;;;;;;;;5008207;28;19941;-82
2021/10/05 13:08:13;;;;;;;;;;;;;;;;;;5013942;28;19936;-82
2021/10/05 13:10:39;;;;;;;;;;;;;;;;;;4994709;28;19913;-83
2021/10/05 13:13:05;;;;;;;;;;;;;;;;;;5012463;28;19956;-84
2021/10/05 13:15:32;;;;;;;;;;;;;;;;;;5011839;28;19905;-85
2021/10/05 13:17:58;;;;;;;;;;;;;;;;;;4996083;28;19967;-85
2021/10/05 13:20:24;;;;;;;;;;;;;;;;;;5010215;28;19945;-85
2021/10/05 13:22:50;;;;;;;;;;;;;;;;;;5010239;28;20424;-84
2021/10/05 13:25:16;;;;;;;;;;;;;;;;;;5001802;28;20432;-85
2021/10/05 13:27:42;;;;;;;;;;;;;;;;;;5012709;28;19912;-84
2021/10/05 13:30:07;;;;;;;;;;;;;;;;;;4995087;28;19909;-85
2021/10/05 13:32:34;;;;;;;;;;;;;;;;;;5013718;28;19917;-84
2021/10/05 13:34:59;;;;;;;;;;;;;;;;;;5007187;28;20537;-85
2021/10/05 13:37:25;;;;;;;;;;;;;;;;;;5013225;28;19909;-85
2021/10/05 13:39:51;;;;;;;;;;;;;;;;;;4989259;28;19956;-85
2021/10/05 13:42:17;;;;;;;;;;;;;;;;;;5013392;28;20521;-85
2021/10/05 13:44:43;;;;;;;;;;;;;;;;;;5013124;28;19976;-85
2021/10/05 13:47:09;;;;;;;;;;;;;;;;;;5016431;28;19909;-85
2021/10/05 13:49:35;;;;;;;;;;;;;;;;;;4998377;28;19936;-85
2021/10/05 13:52:01;;;;;;;;;;;;;;;;;;4998069;28;20055;-83
2021/10/05 13:54:27;;;;;;;;;;;;;;;;;;5014565;28;19913;-84
2021/10/05 13:56:53;;;;;;;;;;;;;;;;;;5012710;28;19916;-84
2021/10/05 13:59:19;;;;;;;;;;;;;;;;;;4984001;28;19987;-84
2021/10/05 14:01:45;;;;;;;;;;;;;;;;;;5012584;28;19917;-82
2021/10/05 14:04:11;;;;;;;;;;;;;;;;;;4998378;28;19905;-82
2021/10/05 14:06:37;;;;;;;;;;;;;;;;;;5012630;28;19916;-82
2021/10/05 14:09:03;;;;;;;;;;;;;;;;;;4994334;28;19981;-82
2021/10/05 14:11:29;;;;;;;;;;;;;;;;;;5012019;28;19913;-82
2021/10/05 14:13:57;;;;;;;;;;;;;;;;;;5012393;28;19967;-81
2021/10/05 14:16:23;;;;;;;;;;;;;;;;;;4995042;28;20454;-82
2021/10/05 14:18:48;;;;;;;;;;;;;;;;;;4994082;28;19999;-82
2021/10/05 14:21:17;;;;;;;;;;;;;;;;;;5012515;28;19906;-84
2021/10/05 14:23:42;;;;;;;;;;;;;;;;;;5012308;28;19906;-82
2021/10/05 14:26:08;;;;;;;;;;;;;;;;;;4994444;28;20325;-81
2021/10/05 14:28:34;;;;;;;;;;;;;;;;;;5012080;28;19913;-82
2021/10/05 14:31:00;;;;;;;;;;;;;;;;;;5011130;28;19912;-82
2021/10/05 14:33:26;;;;;;;;;;;;;;;;;;5012610;28;19909;-82
2021/10/05 14:35:52;;;;;;;;;;;;;;;;;;5015810;28;19937;-83
2021/10/05 14:38:18;;;;;;;;;;;;;;;;;;4995328;28;19920;-84
2021/10/05 14:40:44;;;;;;;;;;;;;;;;;;4994435;28;19906;-83
2021/10/05 14:43:10;;;;;;;;;;;;;;;;;;4992976;28;19909;-84
2021/10/05 14:45:36;;;;;;;;;;;;;;;;;;5006458;28;19913;-83
2021/10/05 14:48:02;;;;;;;;;;;;;;;;;;4991214;28;20005;-83
2021/10/05 14:50:28;;;;;;;;;;;;;;;;;;4993337;28;19917;-83
2021/10/05 14:52:54;;;;;;;;;;;;;;;;;;5010542;28;19996;-83
2021/10/05 14:55:20;;;;;;;;;;;;;;;;;;5011535;28;19917;-83
2021/10/05 14:57:46;;;;;;;;;;;;;;;;;;5010024;28;19938;-83
2021/10/05 15:00:14;;;;;;;;;;;;;;;;;;5008171;28;19913;-82
2021/10/05 15:02:40;;;;;;;;;;;;;;;;;;4987866;28;20485;-83